createdAt,value
2023-05-14T00:03:57.450Z,5.88
2023-05-14T00:09:04.771Z,5.77
2023-05-14T00:14:12.039Z,6.02
2023-05-14T00:19:19.611Z,6.40
2023-05-14T00:24:26.920Z,6.01
2023-05-14T00:29:34.387Z,6.47
2023-05-14T00:34:41.587Z,6.45
2023-05-14T00:39:48.968Z,6.30
2023-05-14T00:44:56.149Z,6.27
2023-05-14T00:50:03.510Z,6.73
2023-05-14T00:55:10.690Z,6.27
2023-05-14T01:00:18.081Z,6.22
2023-05-14T01:05:25.304Z,5.65
2023-05-14T01:10:32.729Z,5.43
2023-05-14T01:15:40.043Z,5.53
2023-05-14T01:20:47.445Z,5.61
2023-05-14T01:25:54.697Z,5.96
2023-05-14T01:31:02.140Z,6.72
2023-05-14T01:36:09.431Z,6.26
2023-05-14T01:41:16.829Z,6.19
2023-05-14T01:46:24.161Z,6.49
2023-05-14T01:51:31.615Z,6.71
2023-05-14T01:56:38.786Z,6.43
2023-05-14T02:01:46.206Z,7.02
2023-05-14T02:06:53.417Z,6.59
2023-05-14T02:12:00.780Z,6.93
2023-05-14T02:17:07.955Z,6.66
2023-05-14T02:22:15.265Z,6.76
2023-05-14T02:27:22.555Z,6.97
2023-05-14T02:32:29.903Z,6.59
2023-05-14T02:37:37.024Z,6.53
2023-05-14T02:42:44.351Z,6.61
2023-05-14T02:47:51.607Z,6.70
2023-05-14T02:52:58.996Z,6.97
2023-05-14T02:58:06.278Z,6.94
2023-05-14T03:03:13.695Z,7.11
2023-05-14T03:08:20.894Z,7.30
2023-05-14T03:13:28.182Z,7.50
2023-05-14T03:18:35.435Z,7.11
2023-05-14T03:23:42.765Z,7.36
2023-05-14T03:28:49.949Z,7.90
2023-05-14T03:33:57.258Z,7.18
2023-05-14T03:39:04.535Z,7.24
2023-05-14T03:44:11.889Z,7.61
2023-05-14T03:49:19.109Z,7.74
2023-05-14T03:54:26.399Z,7.15
2023-05-14T03:59:33.654Z,6.69
2023-05-14T04:04:41.191Z,6.34
2023-05-14T04:09:48.314Z,6.89
2023-05-14T04:14:55.728Z,6.90
2023-05-14T04:20:03.030Z,6.46
2023-05-14T04:25:10.418Z,6.52
2023-05-14T04:30:17.656Z,6.23
2023-05-14T04:35:25.282Z,7.23
2023-05-14T04:40:32.391Z,7.19
2023-05-14T04:45:39.819Z,6.68
2023-05-14T04:50:47.143Z,6.90
2023-05-14T04:55:54.647Z,6.89
2023-05-14T05:01:01.975Z,7.13
2023-05-14T05:06:09.195Z,7.02
2023-05-14T05:11:16.377Z,6.62
2023-05-14T05:16:23.836Z,6.82
2023-05-14T05:21:31.132Z,7.01
2023-05-14T05:26:38.708Z,7.40
2023-05-14T05:31:46.049Z,6.47
2023-05-14T05:36:53.453Z,6.90
2023-05-14T05:42:00.849Z,7.68
2023-05-14T05:47:08.273Z,7.01
2023-05-14T05:52:15.567Z,6.71
2023-05-14T05:57:24.483Z,6.77
2023-05-14T06:02:29.836Z,6.02
2023-05-14T06:07:37.235Z,6.34
2023-05-14T06:12:44.465Z,5.84
2023-05-14T06:17:51.896Z,5.54
2023-05-14T06:22:59.301Z,5.59
2023-05-14T06:28:06.712Z,6.07
2023-05-14T06:33:14.159Z,6.11
2023-05-14T06:38:21.617Z,5.97
2023-05-14T06:43:28.811Z,5.82
2023-05-14T06:48:36.396Z,6.01
2023-05-14T06:53:43.723Z,7.05
2023-05-14T06:58:51.583Z,6.85
2023-05-14T07:03:58.791Z,6.23
2023-05-14T07:09:06.185Z,6.28
2023-05-14T07:14:13.436Z,6.16
2023-05-14T07:19:20.752Z,6.48
2023-05-14T07:24:29.269Z,5.37
2023-05-14T07:29:36.672Z,5.66
2023-05-14T07:34:43.915Z,5.20
2023-05-14T07:39:51.355Z,4.92
2023-05-14T07:44:58.777Z,4.16
2023-05-14T07:50:06.507Z,4.25
2023-05-14T07:55:13.753Z,4.15
2023-05-14T08:00:21.113Z,3.45
2023-05-14T08:05:28.504Z,3.67
2023-05-14T08:10:36.136Z,3.52
2023-05-14T08:15:43.228Z,3.93
2023-05-14T08:20:50.707Z,3.53
2023-05-14T08:25:57.963Z,3.58
2023-05-14T08:31:05.711Z,3.44
2023-05-14T08:36:12.897Z,3.05
2023-05-14T08:41:21.635Z,3.24
2023-05-14T08:46:28.837Z,3.82
2023-05-14T08:51:36.355Z,3.52
2023-05-14T08:56:43.634Z,3.22
2023-05-14T09:01:54.134Z,3.33
2023-05-14T09:06:51.307Z,3.28
2023-05-14T09:11:58.765Z,3.50
2023-05-14T09:17:06.205Z,3.29
2023-05-14T09:22:13.635Z,3.21
2023-05-14T09:27:20.946Z,3.35
2023-05-14T09:32:28.329Z,3.04
2023-05-14T09:37:35.524Z,3.30
2023-05-14T09:42:42.819Z,2.87
2023-05-14T09:47:50.187Z,3.16
2023-05-14T09:52:57.382Z,2.92
2023-05-14T09:58:04.639Z,3.02
2023-05-14T10:03:12.134Z,3.02
2023-05-14T10:08:19.225Z,3.00
2023-05-14T10:13:26.524Z,2.78
2023-05-14T10:18:33.796Z,2.98
2023-05-14T10:23:41.115Z,2.91
2023-05-14T10:28:48.261Z,2.95
2023-05-14T10:39:00.023Z,2.84
2023-05-14T10:44:07.409Z,2.79
2023-05-14T10:49:14.709Z,2.81
2023-05-14T10:54:22.122Z,2.72
2023-05-14T10:59:29.368Z,2.97
2023-05-14T11:04:36.765Z,2.98
2023-05-14T11:09:44.005Z,2.79
2023-05-14T11:14:51.340Z,3.00
2023-05-14T11:19:58.567Z,2.79
2023-05-14T11:25:05.973Z,2.63
2023-05-14T11:30:13.174Z,2.59
2023-05-14T11:35:20.568Z,2.71
2023-05-14T11:40:27.861Z,2.94
2023-05-14T11:45:35.287Z,2.63
2023-05-14T11:50:42.467Z,2.78
2023-05-14T11:55:49.906Z,2.59
2023-05-14T12:00:57.121Z,2.53
2023-05-14T12:06:04.507Z,2.62
2023-05-14T12:11:11.701Z,2.63
2023-05-14T12:16:19.035Z,2.64
2023-05-14T12:21:26.189Z,2.56
2023-05-14T12:26:33.665Z,2.59
2023-05-14T12:31:40.916Z,2.75
2023-05-14T12:36:48.192Z,2.79
2023-05-14T12:41:55.378Z,2.67
2023-05-14T12:47:02.769Z,2.57
2023-05-14T12:57:16.905Z,2.54
2023-05-14T13:02:24.134Z,2.38
2023-05-14T13:07:31.535Z,2.64
2023-05-14T13:12:38.780Z,2.49
2023-05-14T13:17:46.192Z,2.58
2023-05-14T13:22:54.733Z,2.42
2023-05-14T13:28:02.178Z,2.63
2023-05-14T13:33:09.505Z,2.58
2023-05-14T13:38:17.061Z,2.74
2023-05-14T13:43:24.345Z,2.43
2023-05-14T13:48:31.733Z,2.51
2023-05-14T13:53:38.898Z,2.87
2023-05-14T13:58:46.198Z,2.89
2023-05-14T14:03:53.474Z,2.74
2023-05-14T14:09:00.854Z,2.89
2023-05-14T14:14:08.042Z,2.79
2023-05-14T14:19:16.458Z,2.78
2023-05-14T14:24:22.165Z,2.52
2023-05-14T14:29:29.545Z,2.77
2023-05-14T14:34:36.836Z,2.79
2023-05-14T14:39:44.241Z,2.47
2023-05-14T14:44:51.458Z,3.14
2023-05-14T14:49:58.963Z,2.54
2023-05-14T14:55:06.282Z,2.56
2023-05-14T15:00:13.721Z,2.59
2023-05-14T15:05:20.989Z,2.79
2023-05-14T15:10:28.465Z,2.83
2023-05-14T15:15:35.721Z,3.13
2023-05-14T15:20:43.029Z,2.71
2023-05-14T15:25:50.350Z,2.41
2023-05-14T15:30:57.707Z,2.81
2023-05-14T15:36:04.913Z,2.51
2023-05-14T15:41:12.306Z,2.49
2023-05-14T15:46:19.630Z,2.78
2023-05-14T15:51:26.973Z,2.48
2023-05-14T15:56:34.190Z,2.54
2023-05-14T16:01:41.636Z,2.70
2023-05-14T16:06:48.808Z,2.56
2023-05-14T16:11:56.229Z,2.77
2023-05-14T16:17:03.609Z,2.85
2023-05-14T16:22:11.048Z,2.73
2023-05-14T16:27:18.266Z,2.69
2023-05-14T16:32:25.693Z,2.74
2023-05-14T16:37:32.848Z,3.18
2023-05-14T16:42:40.245Z,2.97
2023-05-14T16:47:47.688Z,3.10
2023-05-14T16:52:54.932Z,3.01
2023-05-14T16:58:02.128Z,3.00
2023-05-14T17:03:09.566Z,2.92
2023-05-14T17:08:16.755Z,2.94
2023-05-14T17:13:24.104Z,2.69
2023-05-14T17:18:31.377Z,3.09
2023-05-14T17:23:38.703Z,3.45
2023-05-14T17:33:50.425Z,2.80
2023-05-14T17:38:57.718Z,3.02
2023-05-14T17:44:05.042Z,3.09
2023-05-14T17:49:12.292Z,2.98
2023-05-14T17:54:19.737Z,2.94
2023-05-14T17:59:26.930Z,3.34
2023-05-14T18:04:34.379Z,3.23
2023-05-14T18:09:41.680Z,3.32
2023-05-14T18:14:49.090Z,2.49
2023-05-14T18:19:56.356Z,2.34
2023-05-14T18:25:03.652Z,2.38
2023-05-14T18:30:11.043Z,2.34
2023-05-14T18:35:18.676Z,2.49
2023-05-14T18:40:26.115Z,2.40
2023-05-14T18:45:33.755Z,2.75
2023-05-14T18:50:41.219Z,2.36
2023-05-14T18:55:48.733Z,2.47
2023-05-14T19:06:00.947Z,2.47
2023-05-14T19:11:08.225Z,2.57
2023-05-14T19:16:15.655Z,2.66
2023-05-14T19:21:22.950Z,2.30
2023-05-14T19:26:30.362Z,2.63
2023-05-14T19:31:37.847Z,2.77
2023-05-14T19:36:45.125Z,2.80
2023-05-14T19:41:52.370Z,2.62
2023-05-14T19:47:00.019Z,2.63
2023-05-14T19:52:07.172Z,2.85
2023-05-14T19:57:14.561Z,2.94
2023-05-14T20:02:21.914Z,2.85
2023-05-14T20:07:29.727Z,2.73
2023-05-14T20:12:37.163Z,2.84
2023-05-14T20:17:45.127Z,2.82
2023-05-14T20:22:52.727Z,3.09
2023-05-14T20:28:00.253Z,2.64
2023-05-14T20:33:07.522Z,2.85
2023-05-14T20:38:14.849Z,2.51
2023-05-14T20:43:22.060Z,2.73
2023-05-14T20:48:29.456Z,2.65
2023-05-14T20:53:36.674Z,2.82
2023-05-14T20:58:44.065Z,2.81
2023-05-14T21:03:51.482Z,2.90
2023-05-14T21:08:58.671Z,3.49
2023-05-14T21:14:06.118Z,2.97
2023-05-14T21:19:15.352Z,2.60
2023-05-14T21:24:20.576Z,2.68
2023-05-14T21:29:27.901Z,2.90
2023-05-14T21:34:35.614Z,2.77
2023-05-14T21:39:43.062Z,3.21
2023-05-14T21:44:50.278Z,2.94
2023-05-14T21:49:57.629Z,3.13
2023-05-14T21:55:05.016Z,3.11
2023-05-14T22:00:12.581Z,3.40
2023-05-14T22:05:19.736Z,3.04
2023-05-14T22:10:27.048Z,3.04
2023-05-14T22:15:34.414Z,2.98
2023-05-14T22:20:41.649Z,3.16
2023-05-14T22:25:48.931Z,3.14
2023-05-14T22:30:56.195Z,3.25
2023-05-14T22:36:03.366Z,3.25
2023-05-14T22:41:10.614Z,3.27
2023-05-14T22:46:17.909Z,3.31
2023-05-14T22:51:25.274Z,3.62
2023-05-14T22:56:32.463Z,3.44
2023-05-14T23:01:39.766Z,3.75
2023-05-14T23:06:46.948Z,3.47
2023-05-14T23:11:54.366Z,3.61
2023-05-14T23:17:01.590Z,3.55
2023-05-14T23:22:08.933Z,4.05
2023-05-14T23:27:16.124Z,3.83
2023-05-14T23:32:23.485Z,4.08
2023-05-14T23:37:30.623Z,3.82
2023-05-14T23:42:38.086Z,3.99
2023-05-14T23:47:45.304Z,4.18
2023-05-14T23:52:52.589Z,4.16
2023-05-14T23:57:59.795Z,3.90
